Time;durP1;ratioP1;P1;durP2;ratioP2;P2;SDS_P1;SDS_P2;PMS_P1;PMS_P2;Temp;Humidity;BMP_temperature;BMP_pressure;BME280_temperature;BME280_humidity;BME280_pressure;Samples;Min_cycle;Max_cycle;Signal;HPM_P1;HPM_P2
2022/10/22 00:02:20;;;;;;;3.65;1.50;;;;;;;12.60;100.00;96521.25;4978741;28;20038;-70
2022/10/22 00:04:48;;;;;;;6.65;2.08;;;;;;;12.48;100.00;96538.06;4984164;28;20050;-69
2022/10/22 00:07:15;;;;;;;4.43;2.00;;;;;;;12.39;100.00;96554.91;4979400;28;20038;-71
2022/10/22 00:09:40;;;;;;;3.67;1.40;;;;;;;12.18;100.00;96572.78;4982546;28;20424;-70
2022/10/22 00:12:06;;;;;;;3.97;1.30;;;;;;;12.01;100.00;96615.38;4977581;28;20061;-66
2022/10/22 00:14:31;;;;;;;9.18;1.42;;;;;;;11.92;100.00;96625.88;4981546;28;20076;-70
2022/10/22 00:16:59;;;;;;;11.35;3.03;;;;;;;11.85;100.00;96599.13;4973606;28;20104;-70
2022/10/22 00:19:28;;;;;;;8.90;2.70;;;;;;;11.89;100.00;96574.47;4977716;28;20090;-69
2022/10/22 00:21:54;;;;;;;7.73;2.90;;;;;;;11.99;100.00;96575.75;4976218;28;20049;-68
2022/10/22 00:24:19;;;;;;;9.02;3.83;;;;;;;12.07;100.00;96571.91;4979168;28;20631;-69
2022/10/22 00:26:45;;;;;;;14.75;5.30;;;;;;;12.04;100.00;96575.41;4975374;28;20073;-69
2022/10/22 00:29:10;;;;;;;8.65;3.45;;;;;;;11.98;100.00;96579.66;4976017;28;20042;-70
2022/10/22 00:31:36;;;;;;;8.55;3.60;;;;;;;11.84;100.00;96567.34;4975518;28;20664;-70
2022/10/22 00:34:02;;;;;;;7.47;2.20;;;;;;;11.76;100.00;96573.16;4983256;28;20447;-69
2022/10/22 00:36:28;;;;;;;5.05;2.35;;;;;;;12.00;100.00;96583.59;4975227;28;20050;-69
2022/10/22 00:38:53;;;;;;;2.83;1.40;;;;;;;12.10;100.00;96584.06;4983689;28;20049;-69
2022/10/22 00:41:19;;;;;;;3.22;1.30;;;;;;;12.08;100.00;96580.91;4978470;28;20058;-70
2022/10/22 00:43:59;;;;;;;7.22;1.40;;;;;;;12.14;100.00;96579.41;4982862;28;20046;-71
2022/10/22 00:46:25;;;;;;;2.17;1.08;;;;;;;12.09;100.00;96568.78;4974337;28;20042;-69
2022/10/22 00:48:51;;;;;;;1.27;0.90;;;;;;;12.02;100.00;96575.00;4983513;28;20038;-70
2022/10/22 00:51:20;;;;;;;2.65;1.33;;;;;;;11.96;100.00;96579.25;4986834;28;20038;-70
2022/10/22 00:53:54;;;;;;;2.63;1.03;;;;;;;11.89;100.00;96573.69;4989546;28;20073;-69
2022/10/22 00:56:21;;;;;;;3.05;1.02;;;;;;;11.84;100.00;96588.53;4978233;28;20476;-69
2022/10/22 00:58:52;;;;;;;3.05;0.82;;;;;;;11.83;100.00;96606.16;4981749;28;20046;-70
2022/10/22 01:01:21;;;;;;;6.18;1.20;;;;;;;11.74;100.00;96611.97;4977610;28;20035;-69
2022/10/22 01:03:47;;;;;;;4.85;1.00;;;;;;;11.79;100.00;96600.66;4974460;28;20051;-70
2022/10/22 01:06:20;;;;;;;2.38;0.88;;;;;;;11.88;100.00;96611.28;4977273;28;20125;-70
2022/10/22 01:09:03;;;;;;;3.28;1.17;;;;;;;11.75;100.00;96629.97;4979819;28;20057;-70
2022/10/22 01:11:33;;;;;;;5.43;1.10;;;;;;;11.67;100.00;96628.34;4980182;28;20116;-69
2022/10/22 01:14:28;;;;;;;1.52;0.80;;;;;;;11.74;100.00;96625.69;4980331;28;20050;-69
2022/10/22 01:16:58;;;;;;;2.55;1.00;;;;;;;11.86;100.00;96630.88;4977037;28;20042;-69
2022/10/22 01:19:42;;;;;;;;;;;;;;;11.85;100.00;96634.03;4968325;28;20054;-69
2022/10/22 01:22:20;;;;;;;1.40;1.02;;;;;;;12.00;100.00;96633.00;4957154;28;20409;-71
2022/10/22 01:24:55;;;;;;;4.18;1.50;;;;;;;12.01;100.00;96642.84;4963311;28;20488;-71
2022/10/22 01:28:05;;;;;;;5.15;1.55;;;;;;;12.05;100.00;96649.13;4959738;28;20046;-71
2022/10/22 01:30:30;;;;;;;2.92;1.50;;;;;;;11.96;100.00;96651.41;4973152;28;20046;-71
2022/10/22 01:33:01;;;;;;;2.38;1.15;;;;;;;12.01;100.00;96642.84;4979762;28;20049;-70
2022/10/22 01:35:33;;;;;;;2.40;0.90;;;;;;;12.14;100.00;96639.81;4976465;28;20077;-70
2022/10/22 01:38:02;;;;;;;3.15;1.25;;;;;;;12.09;100.00;96634.66;4980294;28;20042;-70
2022/10/22 01:40:29;;;;;;;2.47;1.00;;;;;;;12.07;100.00;96626.03;4971015;28;20130;-71
2022/10/22 01:43:00;;;;;;;4.13;1.60;;;;;;;12.03;100.00;96631.47;4977205;28;20074;-71
2022/10/22 01:45:27;;;;;;;5.28;0.98;;;;;;;12.04;100.00;96622.84;4972493;28;20046;-69
2022/10/22 01:48:22;;;;;;;6.18;1.15;;;;;;;12.09;100.00;96618.97;4976634;28;20122;-71
2022/10/22 01:51:09;;;;;;;2.75;1.33;;;;;;;12.09;100.00;96623.69;4973621;28;20042;-69
2022/10/22 01:54:19;;;;;;;5.65;1.42;;;;;;;12.14;100.00;96626.88;4972846;28;20042;-71
2022/10/22 01:56:47;;;;;;;;;;;;;;;12.23;100.00;96623.81;4981352;28;20205;-71
2022/10/22 01:59:50;;;;;;;4.05;1.10;;;;;;;12.28;100.00;96611.69;4977160;28;19921;-71
2022/10/22 02:02:34;;;;;;;5.05;1.45;;;;;;;12.23;100.00;96610.09;4976766;28;20097;-71
2022/10/22 02:05:05;;;;;;;3.58;1.15;;;;;;;12.16;100.00;96608.06;4974462;28;20092;-71
2022/10/22 02:07:36;;;;;;;2.70;1.20;;;;;;;12.09;100.00;96596.22;4971833;28;20078;-68
2022/10/22 02:10:04;;;;;;;4.05;1.20;;;;;;;12.12;100.00;96587.22;4979005;28;20133;-66
2022/10/22 02:12:31;;;;;;;4.10;1.40;;;;;;;12.04;100.00;96583.63;4979001;28;20066;-71
2022/10/22 02:14:57;;;;;;;1.73;1.05;;;;;;;12.07;100.00;96587.59;4974039;28;20036;-70
2022/10/22 02:17:27;;;;;;;2.42;0.93;;;;;;;12.14;100.00;96591.19;4980446;28;20462;-70
2022/10/22 02:19:56;;;;;;;3.50;1.20;;;;;;;12.19;100.00;96595.50;4979669;28;20221;-68
2022/10/22 02:22:22;;;;;;;2.97;1.10;;;;;;;12.20;100.00;96595.13;4975387;28;21707;-67
2022/10/22 02:24:49;;;;;;;1.08;0.75;;;;;;;12.23;100.00;96604.59;4982265;28;20046;-70
2022/10/22 02:27:26;;;;;;;1.27;0.60;;;;;;;12.12;100.00;96612.75;4968658;28;20047;-69
2022/10/22 02:29:58;;;;;;;1.38;0.60;;;;;;;12.16;100.00;96607.28;4977715;28;20051;-69
2022/10/22 02:32:30;;;;;;;1.80;0.75;;;;;;;12.18;100.00;96613.97;4971503;28;20330;-68
2022/10/22 02:34:58;;;;;;;0.68;0.50;;;;;;;12.26;100.00;96623.03;4980039;28;20050;-69
2022/10/22 02:37:26;;;;;;;0.85;0.57;;;;;;;12.27;100.00;96621.09;4974111;28;20129;-68
2022/10/22 02:39:53;;;;;;;1.75;0.50;;;;;;;12.29;100.00;96622.28;4977148;28;20043;-69
2022/10/22 02:42:18;;;;;;;2.00;0.60;;;;;;;12.29;100.00;96618.75;4976726;28;20070;-69
2022/10/22 02:44:43;;;;;;;2.95;0.60;;;;;;;12.18;100.00;96630.44;4986095;28;20046;-69
2022/10/22 02:47:09;;;;;;;0.40;0.40;;;;;;;12.13;100.00;96625.28;4978047;28;20046;-70
2022/10/22 02:49:34;;;;;;;0.82;0.57;;;;;;;12.18;100.00;96622.19;4983433;28;20042;-70
2022/10/22 02:52:00;;;;;;;0.55;0.50;;;;;;;12.19;100.00;96617.47;4982293;28;20586;-68
2022/10/22 02:54:26;;;;;;;0.65;0.40;;;;;;;12.14;100.00;96629.63;4983290;28;20057;-68
2022/10/22 02:56:51;;;;;;;0.82;0.40;;;;;;;11.98;100.00;96629.06;4984250;28;20136;-69
2022/10/22 02:59:16;;;;;;;0.75;0.45;;;;;;;12.10;100.00;96630.75;4970116;28;20065;-70
2022/10/22 03:01:42;;;;;;;0.68;0.60;;;;;;;12.02;100.00;96636.16;4981480;28;20051;-70
2022/10/22 03:04:07;;;;;;;1.25;0.52;;;;;;;11.99;100.00;96628.72;4976789;28;20070;-66
2022/10/22 03:06:33;;;;;;;0.98;0.60;;;;;;;11.88;100.00;96633.25;4981325;28;20139;-68
2022/10/22 03:08:58;;;;;;;2.35;0.52;;;;;;;11.79;100.00;96632.75;4984266;28;20049;-67
2022/10/22 03:11:24;;;;;;;0.80;0.50;;;;;;;11.98;100.00;96626.34;4976608;28;20542;-69
2022/10/22 03:13:49;;;;;;;1.13;0.50;;;;;;;12.08;100.00;96613.84;4984393;28;20038;-68
2022/10/22 03:16:15;;;;;;;0.98;0.40;;;;;;;12.13;100.00;96608.81;4976033;28;20050;-68
2022/10/22 03:18:40;;;;;;;1.48;0.50;;;;;;;12.05;100.00;96615.41;4982797;28;20134;-68
2022/10/22 03:21:16;;;;;;;1.27;0.50;;;;;;;12.12;100.00;96614.69;4976664;28;20065;-68
2022/10/22 03:23:42;;;;;;;11.73;0.70;;;;;;;12.05;100.00;96620.91;4979521;28;20101;-68
2022/10/22 03:26:09;;;;;;;0.98;0.30;;;;;;;12.08;100.00;96627.59;4970621;28;20067;-69
2022/10/22 03:28:37;;;;;;;1.17;0.57;;;;;;;12.08;100.00;96625.63;4982880;28;20656;-69
2022/10/22 03:31:03;;;;;;;2.33;0.57;;;;;;;12.08;100.00;96631.13;4978220;28;20050;-65
2022/10/22 03:33:28;;;;;;;1.98;0.40;;;;;;;12.15;100.00;96636.66;4981630;28;20695;-68
2022/10/22 03:35:54;;;;;;;2.80;0.50;;;;;;;12.06;100.00;96641.69;4980116;28;20100;-68
2022/10/22 03:38:19;;;;;;;1.05;0.40;;;;;;;11.90;100.00;96633.69;4965987;28;20047;-69
2022/10/22 03:40:45;;;;;;;2.15;0.50;;;;;;;11.82;100.00;96637.50;4980617;28;20077;-70
2022/10/22 03:43:11;;;;;;;0.52;0.40;;;;;;;11.81;100.00;96642.22;4977003;28;20046;-69
2022/10/22 03:45:36;;;;;;;0.70;0.50;;;;;;;11.94;100.00;96637.28;4980814;28;20050;-68
2022/10/22 03:48:02;;;;;;;0.55;0.50;;;;;;;11.85;100.00;96637.53;4958545;28;20495;-67
2022/10/22 03:50:27;;;;;;;1.20;0.45;;;;;;;12.01;100.00;96642.03;4960170;28;20042;-70
2022/10/22 03:52:53;;;;;;;1.15;0.85;;;;;;;12.10;100.00;96636.22;4963926;28;20155;-68
2022/10/22 03:55:19;;;;;;;3.15;0.90;;;;;;;11.93;100.00;96635.69;4957779;28;20338;-68
2022/10/22 03:57:44;;;;;;;1.10;0.57;;;;;;;11.75;100.00;96635.47;4969382;28;20133;-67
2022/10/22 04:00:10;;;;;;;1.73;0.60;;;;;;;11.69;100.00;96641.69;4958925;28;20050;-69
2022/10/22 04:02:35;;;;;;;3.20;0.77;;;;;;;11.57;100.00;96639.97;4960900;28;20085;-69
2022/10/22 04:05:01;;;;;;;1.83;0.88;;;;;;;11.47;100.00;96633.22;4963649;28;20248;-69
2022/10/22 04:07:26;;;;;;;2.17;0.70;;;;;;;11.41;100.00;96634.69;4966336;28;20050;-70
2022/10/22 04:09:51;;;;;;;3.00;1.33;;;;;;;11.33;100.00;96636.56;4962749;28;20113;-70
2022/10/22 04:12:17;;;;;;;3.60;1.60;;;;;;;11.31;100.00;96649.06;4955355;28;20047;-69
2022/10/22 04:14:43;;;;;;;4.43;1.80;;;;;;;11.33;100.00;96652.25;4963896;28;20087;-70
2022/10/22 04:17:09;;;;;;;3.03;1.20;;;;;;;11.35;100.00;96658.13;4959978;28;20039;-67
2022/10/22 04:19:35;;;;;;;2.72;1.50;;;;;;;11.36;100.00;96652.28;4970280;28;20133;-69
2022/10/22 04:22:00;;;;;;;2.33;1.38;;;;;;;11.29;100.00;96657.69;4982855;28;20128;-69
2022/10/22 04:24:26;;;;;;;2.88;1.13;;;;;;;11.29;100.00;96665.91;4975644;28;20080;-68
2022/10/22 04:26:55;;;;;;;2.85;1.30;;;;;;;11.38;100.00;96666.41;4961221;28;20049;-67
2022/10/22 04:29:20;;;;;;;5.65;1.48;;;;;;;11.60;100.00;96666.66;4956343;28;20114;-67
2022/10/22 04:31:46;;;;;;;2.00;0.77;;;;;;;11.65;100.00;96663.59;4962622;28;20094;-70
2022/10/22 04:34:12;;;;;;;3.83;1.08;;;;;;;11.56;100.00;96652.09;4958177;28;20110;-69
2022/10/22 04:36:37;;;;;;;3.90;0.90;;;;;;;11.27;100.00;96652.56;4969413;28;20538;-69
2022/10/22 04:39:04;;;;;;;3.22;0.80;;;;;;;11.17;100.00;96652.41;4971971;28;20049;-67
2022/10/22 04:41:32;;;;;;;2.53;0.73;;;;;;;11.15;100.00;96655.53;4983206;28;20050;-70
2022/10/22 04:43:59;;;;;;;2.40;0.75;;;;;;;11.07;100.00;96651.91;4982571;28;20046;-70
2022/10/22 04:46:26;;;;;;;4.00;0.80;;;;;;;11.07;100.00;96651.09;4965728;28;20440;-68
2022/10/22 04:48:52;;;;;;;2.63;0.85;;;;;;;11.02;100.00;96649.50;4983255;28;20567;-69
2022/10/22 04:51:19;;;;;;;4.35;1.00;;;;;;;11.02;100.00;96654.97;4977697;28;20046;-69
2022/10/22 04:53:45;;;;;;;2.25;0.85;;;;;;;11.01;100.00;96652.59;4981535;28;20046;-69
2022/10/22 04:56:19;;;;;;;2.70;0.80;;;;;;;11.00;100.00;96660.03;4972424;28;20047;-68
2022/10/22 04:58:49;;;;;;;2.75;0.80;;;;;;;11.01;100.00;96674.53;4982673;28;20050;-70
2022/10/22 05:01:18;;;;;;;1.70;0.70;;;;;;;11.00;100.00;96660.03;4970788;28;20091;-69
2022/10/22 05:03:45;;;;;;;2.03;0.67;;;;;;;10.97;100.00;96658.03;4973490;28;20038;-68
2022/10/22 05:06:12;;;;;;;6.03;0.80;;;;;;;10.97;100.00;96644.31;4965743;28;20055;-68
2022/10/22 05:08:37;;;;;;;5.65;0.90;;;;;;;11.00;100.00;96643.59;4980180;28;20042;-69
2022/10/22 05:11:24;;;;;;;4.20;0.93;;;;;;;11.02;100.00;96638.53;4978258;28;20042;-65
2022/10/22 05:13:50;;;;;;;1.60;0.70;;;;;;;11.00;100.00;96648.25;4982209;28;20042;-69
2022/10/22 05:16:16;;;;;;;2.97;0.82;;;;;;;11.00;100.00;96646.34;4977101;28;20136;-68
2022/10/22 05:18:43;;;;;;;1.67;0.90;;;;;;;11.04;100.00;96647.16;4981039;28;20047;-68
2022/10/22 05:21:14;;;;;;;2.40;0.70;;;;;;;11.07;100.00;96648.34;4965251;28;20097;-68
2022/10/22 05:23:40;;;;;;;2.67;0.77;;;;;;;11.04;100.00;96651.88;4999642;28;20045;-68
2022/10/22 05:26:07;;;;;;;3.95;0.80;;;;;;;11.02;100.00;96633.03;4984473;28;20038;-66
2022/10/22 05:28:33;;;;;;;2.33;0.80;;;;;;;11.02;100.00;96637.72;4999097;28;20049;-69
2022/10/22 05:31:00;;;;;;;3.30;0.95;;;;;;;11.03;100.00;96647.53;4960869;28;20584;-69
2022/10/22 05:33:28;;;;;;;5.10;1.15;;;;;;;11.05;100.00;96645.97;4973594;28;20054;-69
2022/10/22 05:35:53;;;;;;;4.35;1.00;;;;;;;11.04;100.00;96652.66;4988467;28;20050;-69
2022/10/22 05:38:19;;;;;;;2.92;1.05;;;;;;;11.06;100.00;96655.81;4985731;28;20488;-71
2022/10/22 05:40:44;;;;;;;4.30;1.10;;;;;;;11.11;100.00;96660.19;4973393;28;20050;-69
2022/10/22 05:43:11;;;;;;;3.20;1.13;;;;;;;11.32;100.00;96667.88;4966894;28;20050;-68
2022/10/22 05:45:40;;;;;;;3.47;1.10;;;;;;;11.32;100.00;96678.06;4974213;28;20058;-68
2022/10/22 05:48:06;;;;;;;1.95;0.90;;;;;;;11.17;100.00;96666.13;4977118;28;20046;-68
2022/10/22 05:50:35;;;;;;;6.38;1.25;;;;;;;11.06;100.00;96669.50;4968356;28;20066;-68
2022/10/22 05:53:00;;;;;;;5.45;1.10;;;;;;;11.06;100.00;96672.25;4963289;28;20118;-69
2022/10/22 05:55:26;;;;;;;2.15;0.98;;;;;;;11.03;100.00;96663.97;4956858;28;20220;-69
2022/10/22 05:57:51;;;;;;;5.30;1.10;;;;;;;11.00;100.00;96676.47;4945335;28;20050;-69
2022/10/22 06:00:16;;;;;;;2.45;1.10;;;;;;;10.97;100.00;96668.22;4952111;28;20046;-67
2022/10/22 06:02:42;;;;;;;5.63;1.30;;;;;;;10.95;100.00;96679.53;4969154;28;20453;-69
2022/10/22 06:05:08;;;;;;;3.03;1.20;;;;;;;10.97;100.00;96687.38;4954322;28;20516;-65
2022/10/22 06:07:34;;;;;;;1.55;0.85;;;;;;;10.97;100.00;96685.44;4966299;28;20116;-67
2022/10/22 06:10:00;;;;;;;5.00;1.10;;;;;;;10.98;100.00;96694.44;4970679;28;20129;-69
2022/10/22 06:12:26;;;;;;;4.97;1.05;;;;;;;10.98;100.00;96687.00;4956973;28;20162;-69
2022/10/22 06:14:51;;;;;;;2.75;1.10;;;;;;;11.00;100.00;96686.63;4973220;28;20519;-69
2022/10/22 06:17:18;;;;;;;2.75;1.00;;;;;;;11.02;100.00;96700.75;4978001;28;20050;-67
2022/10/22 06:19:44;;;;;;;3.75;1.20;;;;;;;11.14;100.00;96703.28;4975880;28;20066;-66
2022/10/22 06:22:09;;;;;;;7.82;0.88;;;;;;;11.18;100.00;96704.13;4972839;28;20038;-67
2022/10/22 06:24:34;;;;;;;2.05;1.15;;;;;;;11.09;100.00;96698.91;4973591;28;20053;-68
2022/10/22 06:27:00;;;;;;;2.85;1.13;;;;;;;11.06;100.00;96702.41;4986142;28;20506;-67
2022/10/22 06:29:26;;;;;;;5.07;1.23;;;;;;;11.07;100.00;96692.22;4979926;28;20035;-69
2022/10/22 06:31:51;;;;;;;1.60;1.00;;;;;;;11.10;100.00;96708.72;4985854;28;20046;-69
2022/10/22 06:34:17;;;;;;;3.65;1.80;;;;;;;11.14;100.00;96714.25;4971595;28;20038;-69
2022/10/22 06:36:44;;;;;;;2.53;1.30;;;;;;;11.17;100.00;96720.94;4976537;28;20046;-68
2022/10/22 06:39:11;;;;;;;4.13;1.10;;;;;;;11.18;100.00;96736.22;4965585;28;20169;-70
2022/10/22 06:41:37;;;;;;;3.03;1.10;;;;;;;11.22;100.00;96739.81;4976692;28;20082;-69
2022/10/22 06:44:03;;;;;;;24.05;13.40;;;;;;;11.26;100.00;96735.19;4977052;28;20097;-66
2022/10/22 06:46:30;;;;;;;3.33;1.40;;;;;;;11.29;100.00;96739.94;4973493;28;20046;-68
2022/10/22 06:49:01;;;;;;;3.40;1.50;;;;;;;11.28;100.00;96738.34;4985689;28;20510;-69
2022/10/22 06:51:27;;;;;;;3.97;1.00;;;;;;;11.28;100.00;96741.88;4971612;28;20437;-69
2022/10/22 06:53:55;;;;;;;3.22;1.10;;;;;;;11.38;100.00;96734.97;4982125;28;20042;-68
2022/10/22 06:56:22;;;;;;;3.72;1.10;;;;;;;11.39;100.00;96746.72;4975752;28;20045;-68
2022/10/22 06:58:51;;;;;;;2.35;0.93;;;;;;;11.37;100.00;96749.81;4986072;28;20510;-68
2022/10/22 07:01:21;;;;;;;1.60;1.10;;;;;;;11.47;100.00;96751.94;4981627;28;20411;-67
2022/10/22 07:03:50;;;;;;;3.65;1.95;;;;;;;11.39;100.00;96754.94;4989866;28;20047;-68
2022/10/22 07:06:15;;;;;;;5.05;1.60;;;;;;;11.47;100.00;96751.94;4972423;28;20039;-67
2022/10/22 07:08:41;;;;;;;2.00;1.17;;;;;;;11.49;100.00;96754.31;4984083;28;20422;-66
2022/10/22 07:11:15;;;;;;;3.08;1.35;;;;;;;11.50;100.00;96760.56;4980529;28;20381;-65
2022/10/22 07:13:41;;;;;;;4.05;1.70;;;;;;;11.63;100.00;96759.16;4981243;28;20050;-65
2022/10/22 07:16:07;;;;;;;4.35;1.27;;;;;;;11.58;100.00;96768.53;4972205;28;20046;-67
2022/10/22 07:18:34;;;;;;;16.27;1.65;;;;;;;11.61;100.00;96769.72;4982188;28;20141;-67
2022/10/22 07:21:00;;;;;;;4.55;1.60;;;;;;;11.62;100.00;96768.56;4976321;28;20030;-67
2022/10/22 07:23:26;;;;;;;3.85;2.78;;;;;;;11.64;100.00;96777.22;4979622;28;20172;-66
2022/10/22 07:25:52;;;;;;;1.98;1.77;;;;;;;11.65;100.00;96785.09;4975567;28;20137;-68
2022/10/22 07:28:17;;;;;;;3.40;1.83;;;;;;;11.81;100.00;96781.34;4980503;28;20046;-67
2022/10/22 07:30:43;;;;;;;3.20;2.40;;;;;;;11.77;100.00;96792.28;4983350;28;20038;-67
2022/10/22 07:33:08;;;;;;;3.83;1.60;;;;;;;11.73;100.00;96790.66;4978792;28;20050;-68
2022/10/22 07:35:36;;;;;;;2.47;1.50;;;;;;;11.85;100.00;96793.19;4983573;28;20074;-68
2022/10/22 07:38:02;;;;;;;4.95;3.17;;;;;;;11.96;100.00;96798.84;4982263;28;20148;-64
2022/10/22 07:40:27;;;;;;;1.67;1.23;;;;;;;11.99;100.00;96787.91;4981904;28;20582;-67
2022/10/22 07:42:53;;;;;;;8.32;2.90;;;;;;;12.07;100.00;96797.00;4985122;28;20050;-67
2022/10/22 07:45:18;;;;;;;4.57;1.13;;;;;;;12.10;100.00;96793.53;4971549;28;20384;-66
2022/10/22 07:47:45;;;;;;;2.95;1.10;;;;;;;12.18;100.00;96788.91;4983531;28;20038;-66
2022/10/22 07:50:11;;;;;;;8.07;4.72;;;;;;;12.43;100.00;96798.19;4977943;28;20039;-66
2022/10/22 07:52:36;;;;;;;9.82;1.63;;;;;;;12.66;100.00;96804.69;4983021;28;20374;-66
2022/10/22 07:55:02;;;;;;;6.18;1.27;;;;;;;12.79;100.00;96795.81;4974143;28;20062;-67
2022/10/22 07:57:27;;;;;;;21.17;12.90;;;;;;;12.81;100.00;96801.72;4978017;28;20073;-68
2022/10/22 07:59:55;;;;;;;5.25;3.42;;;;;;;12.89;100.00;96810.81;4982532;28;20124;-67
2022/10/22 08:02:20;;;;;;;5.30;3.83;;;;;;;12.99;100.00;96815.59;4970258;28;20043;-66
2022/10/22 08:04:46;;;;;;;4.10;2.20;;;;;;;13.24;100.00;96803.25;4979462;28;20039;-66
2022/10/22 08:07:11;;;;;;;4.60;2.63;;;;;;;13.29;100.00;96811.13;4974908;28;20049;-66
2022/10/22 08:09:36;;;;;;;9.98;3.15;;;;;;;12.97;100.00;96812.47;4983578;28;20054;-69
2022/10/22 08:12:02;;;;;;;3.63;1.80;;;;;;;12.74;100.00;96807.13;4975679;28;20050;-67
2022/10/22 08:14:28;;;;;;;4.88;2.00;;;;;;;12.55;100.00;96808.13;4971618;28;20045;-67
2022/10/22 08:16:53;;;;;;;12.82;7.45;;;;;;;12.61;100.00;96805.84;4973014;28;20045;-68
2022/10/22 08:19:20;;;;;;;4.30;2.97;;;;;;;12.84;100.00;96813.09;4997474;28;20026;-67
2022/10/22 08:21:46;;;;;;;16.10;8.95;;;;;;;13.06;100.00;96819.59;4985381;28;20050;-68
2022/10/22 08:24:12;;;;;;;5.85;4.15;;;;;;;13.28;100.00;96812.31;4973190;28;20042;-68
2022/10/22 08:26:37;;;;;;;5.70;3.47;;;;;;;13.48;100.00;96821.13;4983359;28;20469;-69
2022/10/22 08:29:03;;;;;;;5.18;2.05;;;;;;;13.45;100.00;96814.44;4979771;28;20050;-68
2022/10/22 08:31:28;;;;;;;4.18;2.05;;;;;;;14.23;100.00;96826.25;4978274;28;20072;-69
2022/10/22 08:33:53;;;;;;;5.15;1.70;;;;;;;14.60;100.00;96823.25;4983717;28;20042;-71
2022/10/22 08:36:19;;;;;;;5.93;1.40;;;;;;;15.53;100.00;96832.78;4978016;28;20510;-68
2022/10/22 08:38:44;;;;;;;3.92;1.40;;;;;;;15.89;100.00;96827.22;4982999;28;20053;-68
2022/10/22 08:41:17;;;;;;;5.95;1.83;;;;;;;16.67;100.00;96823.31;4977850;28;20038;-68
2022/10/22 08:44:07;;;;;;;9.57;2.03;;;;;;;17.47;100.00;96821.59;4978940;28;20511;-68
2022/10/22 08:47:08;;;;;;;4.60;2.00;;;;;;;18.24;100.00;96819.63;4981773;28;20050;-67
2022/10/22 08:49:37;;;;;;;8.35;1.90;;;;;;;18.72;100.00;96824.94;4982901;28;20034;-68
2022/10/22 08:52:03;;;;;;;10.27;1.98;;;;;;;18.92;100.00;96821.53;4968081;28;20050;-67
2022/10/22 08:54:38;;;;;;;6.63;1.58;;;;;;;18.29;100.00;96824.72;4980522;28;20622;-69
2022/10/22 08:57:18;;;;;;;4.65;1.38;;;;;;;17.99;100.00;96822.69;4978716;28;20034;-70
2022/10/22 08:59:56;;;;;;;11.10;1.67;;;;;;;18.30;100.00;96821.53;4977224;28;20384;-71
2022/10/22 09:02:58;;;;;;;4.40;1.48;;;;;;;18.46;100.00;96831.28;4969012;28;20209;-69
2022/10/22 09:05:45;;;;;;;4.00;1.40;;;;;;;18.15;100.00;96837.56;4957880;28;20541;-68
2022/10/22 09:08:13;;;;;;;2.55;1.00;;;;;;;18.45;100.00;96829.69;4976910;28;20181;-69
2022/10/22 09:10:45;;;;;;;5.22;1.52;;;;;;;18.23;100.00;96831.94;4979369;28;20520;-70
2022/10/22 09:13:14;;;;;;;3.53;1.20;;;;;;;18.56;100.00;96835.09;4965211;28;20085;-70
2022/10/22 09:15:40;;;;;;;2.97;1.40;;;;;;;18.88;100.00;96831.91;4981395;28;20476;-70
2022/10/22 09:18:24;;;;;;;2.55;1.10;;;;;;;18.95;100.00;96834.59;4977533;28;20042;-69
2022/10/22 09:20:57;;;;;;;6.05;1.38;;;;;;;19.38;100.00;96849.81;4979442;28;20377;-68
2022/10/22 09:23:28;;;;;;;5.65;1.50;;;;;;;19.73;100.00;96850.41;4971523;28;20462;-69
2022/10/22 09:25:56;;;;;;;3.05;1.50;;;;;;;20.38;99.77;96855.56;4982439;28;20069;-70
2022/10/22 09:28:22;;;;;;;5.93;1.40;;;;;;;20.50;97.36;96851.38;4977500;28;29131;-68
2022/10/22 09:30:48;;;;;;;5.18;1.13;;;;;;;21.35;91.77;96859.84;4978414;28;20512;-67
2022/10/22 09:33:20;;;;;;;2.28;0.70;;;;;;;22.25;83.64;96854.00;4971056;28;20097;-68
2022/10/22 09:36:05;;;;;;;2.83;1.35;;;;;;;21.99;87.48;96851.13;4980791;28;20042;-68
2022/10/22 09:38:33;;;;;;;3.25;0.80;;;;;;;22.44;82.60;96858.69;4986656;28;20125;-67
2022/10/22 09:41:02;;;;;;;2.33;0.60;;;;;;;23.33;74.88;96859.28;4979400;28;20038;-67
2022/10/22 09:43:28;;;;;;;3.72;0.47;;;;;;;22.49;71.14;96860.94;4976813;28;20511;-67
2022/10/22 09:46:01;;;;;;;1.67;0.50;;;;;;;22.37;70.22;96870.03;4978780;28;20038;-67
2022/10/22 09:48:31;;;;;;;1.75;0.70;;;;;;;23.04;68.38;96862.94;4978013;28;20125;-67
2022/10/22 09:51:10;;;;;;;;;;;;;;;23.73;64.54;96870.72;4977794;28;20042;-67
2022/10/22 09:53:54;;;;;;;2.55;1.15;;;;;;;23.19;69.24;96866.09;4970574;28;20376;-67
2022/10/22 09:56:34;;;;;;;3.72;0.90;;;;;;;23.52;68.90;96868.66;4969759;28;20043;-67
2022/10/22 09:59:00;;;;;;;2.33;1.20;;;;;;;24.13;65.75;96864.63;4973022;28;20034;-68
2022/10/22 10:01:32;;;;;;;3.97;1.00;;;;;;;23.92;69.20;96870.94;4956624;28;20542;-67
2022/10/22 10:04:09;;;;;;;4.97;0.90;;;;;;;24.91;63.36;96876.22;4962680;28;20046;-67
2022/10/22 10:06:37;;;;;;;3.22;1.27;;;;;;;24.13;65.72;96869.41;4960001;28;20149;-67
2022/10/22 10:09:19;;;;;;;0.85;0.43;;;;;;;24.23;61.11;96868.25;4967445;28;20043;-64
2022/10/22 10:11:57;;;;;;;2.47;0.60;;;;;;;22.08;75.28;96861.66;4962781;28;20130;-67
2022/10/22 10:14:41;;;;;;;1.30;0.70;;;;;;;22.28;77.02;96867.13;4957742;28;20902;-67
2022/10/22 10:17:27;;;;;;;1.30;0.75;;;;;;;23.16;71.94;96861.41;4955552;28;20061;-67
2022/10/22 10:20:14;;;;;;;0.82;0.40;;;;;;;23.11;69.60;96865.53;4962879;28;20034;-68
2022/10/22 10:22:52;;;;;;;4.45;0.60;;;;;;;22.67;67.84;96865.19;4966421;28;20074;-68
2022/10/22 10:25:36;;;;;;;51.30;37.10;;;;;;;22.94;69.82;96864.81;4965057;28;20047;-67
2022/10/22 10:28:14;;;;;;;7.38;1.67;;;;;;;22.97;67.45;96863.13;4975300;28;20101;-67
2022/10/22 10:30:55;;;;;;;1.88;0.75;;;;;;;23.06;68.58;96860.50;4979705;28;20073;-67
2022/10/22 10:33:36;;;;;;;1.65;0.40;;;;;;;22.09;68.24;96874.34;4983006;28;20034;-66
2022/10/22 10:36:07;;;;;;;2.95;0.55;;;;;;;;;;4980797;28;20396;-66
2022/10/22 10:38:53;;;;;;;1.02;0.50;;;;;;;22.18;65.89;96862.56;4982665;28;20054;-68
2022/10/22 10:41:24;;;;;;;13.15;8.27;;;;;;;21.90;68.96;96870.50;4974317;28;20065;-68
2022/10/22 10:44:08;;;;;;;1.83;1.02;;;;;;;22.18;68.83;96868.16;4986747;28;20053;-68
2022/10/22 10:47:09;;;;;;;2.63;0.68;;;;;;;22.54;66.19;96867.97;4973980;28;20057;-67
2022/10/22 10:49:35;;;;;;;1.58;0.50;;;;;;;22.70;66.53;96878.28;4931672;28;20050;-68
2022/10/22 10:52:08;;;;;;;6.53;0.50;;;;;;;22.36;66.86;96879.63;4966944;28;20070;-67
2022/10/22 10:54:42;;;;;;;4.20;0.55;;;;;;;21.90;68.40;96876.06;4962648;28;20049;-69
2022/10/22 10:57:32;;;;;;;0.70;0.32;;;;;;;21.83;70.00;96876.25;4955787;28;20376;-69
2022/10/22 11:00:07;;;;;;;2.05;0.40;;;;;;;21.09;72.41;96875.56;4961151;28;20432;-68
2022/10/22 11:02:36;;;;;;;4.45;0.80;;;;;;;21.23;74.65;96882.03;4972096;28;20661;-68
2022/10/22 11:05:29;;;;;;;3.40;0.60;;;;;;;21.64;72.09;96875.88;4967253;28;20053;-69
2022/10/22 11:08:20;;;;;;;1.45;0.60;;;;;;;22.24;69.68;96869.97;4982600;28;20038;-69
2022/10/22 11:10:50;;;;;;;2.13;0.65;;;;;;;22.64;65.57;96871.69;4981744;28;20038;-68
2022/10/22 11:13:32;;;;;;;5.97;0.90;;;;;;;22.26;68.27;96877.91;4977232;28;20526;-67
2022/10/22 11:16:03;;;;;;;2.78;0.60;;;;;;;22.03;69.69;96874.13;4980164;28;20060;-67
2022/10/22 11:18:41;;;;;;;3.03;0.60;;;;;;;22.42;66.29;96863.94;4981279;28;20048;-68
2022/10/22 11:21:15;;;;;;;2.35;0.80;;;;;;;22.33;65.54;96867.34;4973039;28;20417;-67
2022/10/22 11:23:57;;;;;;;1.65;0.60;;;;;;;22.47;67.22;96868.97;4984209;28;20038;-67
2022/10/22 11:26:45;;;;;;;3.28;0.63;;;;;;;23.00;62.48;96873.44;4977082;28;20054;-67
2022/10/22 11:29:34;;;;;;;1.65;0.60;;;;;;;23.27;62.23;96873.03;4976388;28;20077;-68
2022/10/22 11:32:01;;;;;;;2.13;0.60;;;;;;;22.30;67.24;96871.03;4984048;28;20499;-67
2022/10/22 11:34:33;;;;;;;12.75;7.13;;;;;;;22.71;65.42;96880.63;4979381;28;20309;-67
2022/10/22 11:37:00;;;;;;;2.72;0.60;;;;;;;23.04;61.97;96874.09;4979787;28;20042;-68
2022/10/22 11:39:38;;;;;;;1.50;0.40;;;;;;;23.15;62.32;96868.97;4977273;28;20488;-69
2022/10/22 11:42:05;;;;;;;2.13;0.60;;;;;;;22.72;61.70;96867.44;4979980;28;20054;-67